Time;durP1;ratioP1;P1;durP2;ratioP2;P2;SDS_P1;SDS_P2;PMS_P1;PMS_P2;Temp;Humidity;BMP_temperature;BMP_pressure;BME280_temperature;BME280_humidity;BME280_pressure;Samples;Min_cycle;Max_cycle;Signal;HPM_P1;HPM_P2
2022/01/24 00:01:19;;;;;;;15.88;5.75;;;;;;;16.77;39.01;102900.94;4993192;28;20065;-73
2022/01/24 00:03:45;;;;;;;14.20;5.85;;;;;;;16.82;39.01;102903.63;4993286;28;20461;-73
2022/01/24 00:06:14;;;;;;;9.10;4.40;;;;;;;16.79;38.75;102896.78;4993113;28;20111;-82
2022/01/24 00:08:40;;;;;;;15.60;5.88;;;;;;;16.68;38.93;102892.50;4993159;28;20535;-73
2022/01/24 00:11:10;;;;;;;11.90;5.47;;;;;;;16.58;38.97;102900.97;4993169;28;20034;-74
2022/01/24 00:16:31;;;;;;;10.25;5.15;;;;;;;16.49;38.93;102900.84;4993041;28;20042;-73
2022/01/24 00:26:54;;;;;;;14.15;6.30;;;;;;;16.09;39.15;102903.09;4993042;28;20499;-73
2022/01/24 00:29:22;;;;;;;16.10;6.90;;;;;;;16.13;39.29;102902.50;4992925;28;20027;-73
2022/01/24 00:31:48;;;;;;;10.93;6.80;;;;;;;16.00;39.42;102904.06;4995038;28;20031;-73
2022/01/24 00:34:15;;;;;;;11.50;5.68;;;;;;;15.98;39.50;102907.13;4996954;28;20046;-73
2022/01/24 00:36:42;;;;;;;14.48;6.53;;;;;;;15.68;39.75;102907.53;4996785;28;20528;-72
2022/01/24 00:39:08;;;;;;;16.13;7.07;;;;;;;15.75;39.59;102903.28;4996477;28;20047;-73
2022/01/24 00:41:46;;;;;;;12.10;5.93;;;;;;;15.73;39.78;102905.53;4996777;28;20516;-73
2022/01/24 00:47:18;;;;;;;13.43;6.25;;;;;;;15.74;39.43;102915.44;4996619;28;20030;-73
2022/01/24 00:53:00;;;;;;;13.45;6.50;;;;;;;15.67;39.58;102916.91;4996487;28;20022;-73
2022/01/24 00:53:11;;;;;;;15.07;6.35;;;;;;;15.66;39.61;102907.81;4996642;28;20030;-73
2022/01/24 00:55:36;;;;;;;14.45;6.47;;;;;;;15.50;39.81;102887.88;4996556;28;20019;-73
2022/01/24 00:58:02;;;;;;;12.13;5.85;;;;;;;15.37;39.75;102899.59;4996467;28;20034;-73
2022/01/24 01:00:28;;;;;;;18.38;6.70;;;;;;;15.37;39.97;102904.28;4996396;28;20026;-73
2022/01/24 01:02:53;;;;;;;12.07;6.07;;;;;;;15.41;39.81;102900.63;4996302;28;20057;-73
2022/01/24 01:18:42;;;;;;;10.23;5.55;;;;;;;15.06;40.29;102873.50;4996373;28;20096;-74
2022/01/24 01:21:10;;;;;;;14.02;6.13;;;;;;;15.08;40.10;102871.28;4996097;28;20029;-74
2022/01/24 01:23:40;;;;;;;12.35;6.60;;;;;;;15.04;40.16;102871.06;4995980;28;20026;-73
2022/01/24 01:26:12;;;;;;;13.68;6.60;;;;;;;15.09;39.92;102875.66;4995984;28;20029;-73
2022/01/24 01:28:41;;;;;;;10.80;5.60;;;;;;;15.04;40.22;102884.81;4995939;28;20023;-73
2022/01/24 01:31:13;;;;;;;11.82;6.40;;;;;;;15.03;40.17;102883.16;4995883;28;20042;-73
2022/01/24 01:33:59;;;;;;;15.30;6.47;;;;;;;15.04;40.13;102881.22;4995905;28;20057;-73
2022/01/24 01:55:40;;;;;;;19.70;6.77;;;;;;;14.98;40.38;102895.06;4995581;28;20045;-73
2022/01/24 01:58:18;;;;;;;12.77;6.07;;;;;;;14.84;40.82;102893.28;4995367;28;20433;-73
2022/01/24 02:00:48;;;;;;;16.02;6.03;;;;;;;14.90;40.63;102886.63;4995359;28;20039;-73
2022/01/24 02:03:15;;;;;;;10.60;5.18;;;;;;;14.93;40.43;102888.78;4995292;28;20026;-74
2022/01/24 02:05:40;;;;;;;11.93;5.72;;;;;;;14.90;40.72;102886.63;4995155;28;20033;-73
2022/01/24 02:08:06;;;;;;;14.98;5.75;;;;;;;14.93;40.35;102892.34;4995222;28;20027;-73
2022/01/24 02:10:35;;;;;;;15.45;5.82;;;;;;;14.91;40.41;102896.50;4995196;28;20482;-72
2022/01/24 02:13:01;;;;;;;11.77;6.55;;;;;;;14.89;40.31;102885.78;4995179;28;20030;-74
2022/01/24 02:23:47;;;;;;;10.32;4.78;;;;;;;14.73;40.29;102898.03;4995103;28;20484;-73
2022/01/24 02:26:19;;;;;;;11.63;5.85;;;;;;;14.61;40.19;102894.84;4994920;28;20030;-82
2022/01/24 02:28:55;;;;;;;9.18;5.35;;;;;;;14.59;40.26;102897.09;4994824;28;20466;-73
2022/01/24 02:31:37;;;;;;;14.00;6.50;;;;;;;14.56;40.58;102897.63;4994804;28;20389;-73
2022/01/24 02:34:30;;;;;;;11.27;6.38;;;;;;;14.50;40.31;102899.59;4994743;28;20023;-73
2022/01/24 02:37:20;;;;;;;9.27;4.50;;;;;;;14.51;40.33;102890.25;4994754;28;20026;-79
2022/01/24 02:39:58;;;;;;;11.05;5.40;;;;;;;14.46;40.32;102892.22;4991244;28;20523;-74
2022/01/24 02:48:25;;;;;;;19.80;6.32;;;;;;;14.38;40.59;102880.69;4994582;28;20072;-73
2022/01/24 02:53:29;;;;;;;19.58;6.40;;;;;;;14.42;40.43;102881.75;4993790;28;20085;-73
2022/01/24 02:55:55;;;;;;;15.52;6.45;;;;;;;14.43;40.58;102886.16;4994357;28;20026;-76
2022/01/24 02:58:21;;;;;;;11.63;5.63;;;;;;;14.44;40.70;102878.75;4994344;28;20029;-73
2022/01/24 03:00:48;;;;;;;12.95;6.28;;;;;;;14.40;40.71;102875.72;4994120;28;20081;-73
2022/01/24 03:03:14;;;;;;;11.68;5.80;;;;;;;14.43;40.75;102875.16;4994093;28;20046;-73
2022/01/24 03:05:40;;;;;;;17.90;6.63;;;;;;;14.46;40.90;102873.78;4994102;28;20093;-73
2022/01/24 03:08:06;;;;;;;12.07;6.55;;;;;;;14.46;40.99;102864.72;4994138;28;20027;-72
2022/01/24 03:10:46;;;;;;;16.25;6.75;;;;;;;14.48;41.12;102868.00;4994026;28;20105;-73
2022/01/24 03:13:32;;;;;;;13.50;6.28;;;;;;;14.43;41.04;102861.41;4994139;28;20401;-73
2022/01/24 03:16:03;;;;;;;17.50;6.47;;;;;;;14.49;41.09;102869.63;4994060;28;20031;-74
2022/01/24 03:18:30;;;;;;;11.75;6.30;;;;;;;14.37;41.40;102867.25;4993878;28;20026;-72
2022/01/24 03:20:55;;;;;;;14.55;6.85;;;;;;;14.40;41.53;102869.41;4993845;28;20037;-73
2022/01/24 03:23:23;;;;;;;15.30;6.65;;;;;;;14.43;41.51;102866.91;4993743;28;20385;-73
2022/01/24 03:25:50;;;;;;;13.15;6.82;;;;;;;14.46;41.59;102867.47;4992486;28;20458;-73
2022/01/24 03:28:16;;;;;;;23.05;7.72;;;;;;;14.51;41.38;102861.91;4993690;28;20028;-74
2022/01/24 03:30:42;;;;;;;7.90;5.95;;;;;;;14.46;41.77;102862.78;4992392;28;20023;-74
2022/01/24 03:33:09;;;;;;;17.25;7.53;;;;;;;14.45;41.77;102858.38;4993642;28;20466;-73
2022/01/24 03:35:35;;;;;;;10.90;5.93;;;;;;;14.46;41.82;102864.72;4993579;28;20034;-73
2022/01/24 03:38:02;;;;;;;13.27;7.45;;;;;;;14.40;41.72;102856.47;4993362;28;20113;-73
2022/01/24 03:40:28;;;;;;;11.73;7.70;;;;;;;14.38;41.82;102853.19;4993594;28;20030;-73
2022/01/24 03:42:55;;;;;;;16.13;8.43;;;;;;;14.31;42.15;102855.44;4993389;28;20056;-73
2022/01/24 03:45:35;;;;;;;16.20;6.97;;;;;;;14.37;41.98;102850.75;4993514;28;20030;-73
2022/01/24 03:50:45;;;;;;;11.77;6.93;;;;;;;14.34;42.17;102860.38;4993396;28;20090;-73
2022/01/24 03:53:11;;;;;;;15.85;7.53;;;;;;;14.25;42.47;102853.84;4993261;28;20034;-73
2022/01/24 03:55:36;;;;;;;21.27;7.28;;;;;;;14.25;42.37;102851.09;4993290;28;20027;-73
2022/01/24 03:58:02;;;;;;;15.15;6.63;;;;;;;14.19;42.49;102843.97;4993360;28;20026;-73
2022/01/24 04:00:28;;;;;;;13.45;7.90;;;;;;;14.23;42.17;102850.56;4993233;28;20034;-73
2022/01/24 04:02:54;;;;;;;17.40;6.97;;;;;;;14.24;42.26;102854.94;4993169;28;20387;-73
2022/01/24 04:05:20;;;;;;;16.08;7.30;;;;;;;14.18;42.25;102861.59;4991988;28;20027;-73
2022/01/24 04:07:45;;;;;;;13.80;6.50;;;;;;;14.15;42.46;102862.16;4993209;28;20374;-73
2022/01/24 04:10:12;;;;;;;14.05;7.18;;;;;;;14.20;42.29;102856.63;4993214;28;20027;-73
2022/01/24 04:12:40;;;;;;;14.23;6.78;;;;;;;14.16;42.59;102858.31;4993124;28;20031;-73
2022/01/24 04:15:23;;;;;;;8.75;7.07;;;;;;;14.15;42.32;102860.25;4993071;28;20111;-73
2022/01/24 04:17:58;;;;;;;11.15;7.00;;;;;;;14.19;42.20;102867.91;4993092;28;20033;-73
2022/01/24 04:23:07;;;;;;;15.35;6.45;;;;;;;13.95;42.85;102865.03;4993272;28;20136;-73
2022/01/24 04:25:33;;;;;;;13.50;6.03;;;;;;;14.01;42.67;102861.16;4993067;28;20062;-83
2022/01/24 04:27:58;;;;;;;15.05;7.07;;;;;;;14.01;42.66;102861.16;4992969;28;20398;-73
2022/01/24 04:30:24;;;;;;;9.35;6.72;;;;;;;14.05;42.78;102867.72;5282488;23;20054;-76
2022/01/24 04:32:50;;;;;;;12.55;7.25;;;;;;;13.94;42.76;102872.47;4992999;28;20027;-73
2022/01/24 04:35:15;;;;;;;13.52;7.57;;;;;;;13.92;42.79;102871.13;4992926;28;20365;-80
2022/01/24 04:37:41;;;;;;;13.35;7.38;;;;;;;13.96;42.70;102867.50;4993096;28;20113;-73
2022/01/24 04:40:07;;;;;;;14.27;7.43;;;;;;;13.92;42.59;102871.94;4993293;28;20023;-74
2022/01/24 04:43:01;;;;;;;15.55;7.53;;;;;;;13.81;42.89;102862.91;4993549;28;20048;-77
2022/01/24 04:45:33;;;;;;;14.23;7.10;;;;;;;13.87;42.78;102869.22;4992236;28;20038;-80
2022/01/24 04:50:59;;;;;;;14.77;6.45;;;;;;;13.95;42.71;102873.28;4993032;28;20084;-81
2022/01/24 04:53:54;;;;;;;11.27;5.97;;;;;;;13.87;42.48;102864.53;4993139;28;20090;-75
2022/01/24 04:56:13;;;;;;;14.40;7.32;;;;;;;13.83;42.62;102870.91;4992225;28;20030;-74
2022/01/24 04:58:39;;;;;;;16.15;7.47;;;;;;;13.92;42.49;102871.94;4993200;28;20404;-79
2022/01/24 05:01:05;;;;;;;13.00;7.13;;;;;;;13.83;42.66;102881.91;4993150;28;20026;-74
2022/01/24 05:03:30;;;;;;;11.07;6.85;;;;;;;13.78;42.59;102877.22;4992959;28;20164;-75
2022/01/24 05:05:56;;;;;;;15.63;6.82;;;;;;;13.70;42.94;102869.59;4992869;28;20484;-75
2022/01/24 05:08:21;;;;;;;16.88;8.02;;;;;;;13.76;42.88;102875.88;4992904;28;20022;-78
2022/01/24 05:11:01;;;;;;;15.05;7.75;;;;;;;14.00;42.37;102873.28;4993265;28;20022;-80
2022/01/24 05:24:22;;;;;;;20.63;9.40;;;;;;;14.13;42.67;102875.34;4996398;28;20069;-75
2022/01/24 05:26:48;;;;;;;15.88;9.00;;;;;;;14.21;42.55;102873.94;4996088;28;20022;-74
2022/01/24 05:29:13;;;;;;;14.65;8.60;;;;;;;14.21;42.47;102869.28;4996202;28;20072;-78
2022/01/24 05:31:40;;;;;;;18.95;9.68;;;;;;;14.23;42.49;102867.06;4996109;28;20456;-73
2022/01/24 05:34:05;;;;;;;17.92;10.52;;;;;;;14.24;42.54;102865.94;4996368;28;20137;-74
2022/01/24 05:36:31;;;;;;;18.75;10.60;;;;;;;14.27;42.63;102859.88;4996082;28;20488;-75
2022/01/24 05:38:57;;;;;;;20.17;10.98;;;;;;;14.24;43.02;102868.69;4996115;28;20038;-73
2022/01/24 05:41:24;;;;;;;29.45;12.45;;;;;;;14.34;42.75;102865.03;4997399;28;20054;-79
2022/01/24 05:43:49;;;;;;;21.85;12.32;;;;;;;14.32;42.93;102870.84;4997789;28;20175;-78
2022/01/24 05:46:15;;;;;;;21.63;12.60;;;;;;;14.33;42.96;102866.97;4998084;28;20031;-73
2022/01/24 05:48:40;;;;;;;25.30;14.45;;;;;;;14.29;43.08;102865.94;4995833;28;20034;-74
2022/01/24 05:51:06;;;;;;;26.20;15.50;;;;;;;14.31;43.40;102879.38;4996037;28;20459;-82
2022/01/24 05:53:32;;;;;;;25.60;15.38;;;;;;;14.43;42.97;102877.06;4995938;28;20118;-72
2022/01/24 05:55:59;;;;;;;33.90;16.25;;;;;;;14.43;43.17;102879.81;4995702;28;20030;-75
2022/01/24 05:58:24;;;;;;;26.77;15.98;;;;;;;14.37;43.37;102890.06;4995608;28;20507;-82
2022/01/24 06:00:50;;;;;;;29.35;15.80;;;;;;;14.29;43.51;102898.91;4995579;28;20034;-73
2022/01/24 06:03:16;;;;;;;28.08;15.32;;;;;;;14.27;43.44;102903.03;4995567;28;20041;-73
2022/01/24 06:05:41;;;;;;;27.90;16.30;;;;;;;14.22;43.42;102898.41;4995377;28;20038;-72
2022/01/24 06:08:07;;;;;;;28.42;16.27;;;;;;;14.21;43.61;102910.53;4995363;28;20037;-79
2022/01/24 06:10:33;;;;;;;33.80;17.67;;;;;;;14.20;43.54;102905.28;4995671;28;20045;-80
2022/01/24 06:12:58;;;;;;;29.20;17.35;;;;;;;14.16;43.58;102908.63;4977857;28;20033;-74
2022/01/24 06:15:24;;;;;;;30.33;17.38;;;;;;;14.18;43.63;102900.06;4995409;28;20022;-74
2022/01/24 06:17:49;;;;;;;26.40;16.65;;;;;;;14.16;43.69;102905.88;4995633;28;20026;-75
2022/01/24 06:20:15;;;;;;;27.67;17.58;;;;;;;14.05;43.66;102898.78;4995344;28;20393;-77
2022/01/24 06:22:41;;;;;;;32.20;17.52;;;;;;;14.11;43.58;102907.81;4995432;28;20484;-73
2022/01/24 06:25:08;;;;;;;30.38;17.02;;;;;;;14.09;43.65;102904.53;4977926;28;20547;-73
2022/01/24 06:27:34;;;;;;;32.85;17.23;;;;;;;14.09;43.87;102904.53;4995093;28;20126;-76
2022/01/24 06:29:59;;;;;;;26.90;16.40;;;;;;;14.04;43.78;102896.31;4976739;28;20446;-76
2022/01/24 06:32:25;;;;;;;31.00;16.50;;;;;;;14.05;43.82;102898.78;4994815;28;20072;-80
2022/01/24 06:34:51;;;;;;;28.73;17.05;;;;;;;13.98;44.06;102909.28;4994874;28;20505;-77
2022/01/24 06:37:16;;;;;;;34.33;18.58;;;;;;;14.03;43.61;102909.25;4994788;28;20030;-72
2022/01/24 06:39:42;;;;;;;30.23;17.33;;;;;;;13.89;44.11;102911.78;4994769;28;20030;-73
2022/01/24 06:42:14;;;;;;;34.28;19.15;;;;;;;13.80;44.20;102921.72;4994838;28;20026;-82
2022/01/24 06:44:41;;;;;;;33.70;17.75;;;;;;;13.77;44.24;102918.75;4994740;28;20104;-76
2022/01/24 06:47:07;;;;;;;31.67;19.23;;;;;;;13.72;44.51;102922.31;4994752;28;20085;-77
2022/01/24 06:49:35;;;;;;;31.75;18.38;;;;;;;13.83;44.07;102923.94;4995099;28;20038;-73
2022/01/24 06:52:01;;;;;;;32.17;18.17;;;;;;;13.84;43.94;102925.56;4994625;28;20038;-73
2022/01/24 06:54:26;;;;;;;36.90;19.52;;;;;;;13.72;44.13;102916.81;4994463;28;20031;-72
2022/01/24 06:56:52;;;;;;;45.08;20.30;;;;;;;13.74;44.35;102922.84;4994402;28;20085;-73
2022/01/24 06:59:18;;;;;;;30.38;19.35;;;;;;;13.73;44.05;102921.22;4994562;28;20469;-79
2022/01/24 07:01:43;;;;;;;38.03;19.33;;;;;;;13.66;44.57;102920.69;4994446;28;20041;-73
2022/01/24 07:04:09;;;;;;;32.30;17.73;;;;;;;13.69;44.10;102922.06;4994222;28;20089;-72
2022/01/24 07:06:34;;;;;;;33.00;18.10;;;;;;;13.70;44.23;102932.78;4994188;28;20034;-75
2022/01/24 07:09:02;;;;;;;42.83;21.35;;;;;;;13.69;44.26;102939.38;4994369;28;20035;-73
2022/01/24 07:11:27;;;;;;;32.53;19.77;;;;;;;13.69;44.39;102931.13;4998494;28;20030;-83
2022/01/24 07:13:53;;;;;;;38.05;20.27;;;;;;;13.68;44.42;102936.88;4976595;28;20034;-78
2022/01/24 07:16:19;;;;;;;38.58;21.15;;;;;;;13.72;44.29;102941.53;4993835;28;20113;-77
2022/01/24 07:19:03;;;;;;;39.63;20.75;;;;;;;13.72;44.11;102944.28;4994166;28;20122;-76
2022/01/24 07:21:29;;;;;;;40.65;20.35;;;;;;;13.76;44.16;102939.06;4994020;28;20030;-79
2022/01/24 07:23:55;;;;;;;35.33;20.35;;;;;;;13.73;44.23;102945.13;4993907;28;20499;-72
2022/01/24 07:26:21;;;;;;;36.88;20.58;;;;;;;13.73;44.23;102953.34;4994207;28;20062;-72
2022/01/24 07:28:46;;;;;;;36.45;20.83;;;;;;;13.71;44.43;102950.06;4994002;28;20053;-74
2022/01/24 07:31:12;;;;;;;38.92;21.30;;;;;;;13.70;44.47;102952.00;4993619;28;20050;-76
2022/01/24 07:33:40;;;;;;;35.03;19.95;;;;;;;13.69;44.53;102952.28;4994092;28;20546;-74
2022/01/24 07:36:06;;;;;;;36.78;20.48;;;;;;;13.71;44.50;102964.63;4976280;28;20050;-74
2022/01/24 07:38:32;;;;;;;35.10;21.02;;;;;;;13.70;44.55;102970.41;4993760;28;20023;-72
2022/01/24 07:41:00;;;;;;;43.30;22.80;;;;;;;13.70;44.72;102976.72;4993572;28;20036;-71
2022/01/24 07:43:25;;;;;;;39.15;21.80;;;;;;;13.83;44.47;102976.13;4993506;28;20030;-72
2022/01/24 07:45:51;;;;;;;36.25;19.65;;;;;;;13.69;44.56;102979.75;4976459;28;20089;-83
2022/01/24 07:48:20;;;;;;;39.70;20.40;;;;;;;13.79;44.49;102982.47;4993783;28;20018;-80
2022/01/24 07:50:47;;;;;;;39.83;22.17;;;;;;;13.78;44.53;102978.06;4993670;28;20026;-77
2022/01/24 07:53:16;;;;;;;35.75;20.30;;;;;;;13.81;44.61;102985.75;4993710;28;20057;-75
2022/01/24 07:55:42;;;;;;;33.15;21.77;;;;;;;13.78;44.79;102995.38;4993747;28;20469;-79
2022/01/24 07:58:08;;;;;;;37.58;20.50;;;;;;;13.81;44.55;102985.75;4993641;28;20040;-73
2022/01/24 08:00:34;;;;;;;38.05;22.10;;;;;;;13.75;44.74;102986.84;4993642;28;20113;-73
2022/01/24 08:03:00;;;;;;;32.50;20.05;;;;;;;13.72;44.77;102987.44;4993464;28;20552;-77
2022/01/24 08:05:27;;;;;;;36.20;19.98;;;;;;;13.68;44.83;102989.09;4993440;28;20026;-73
2022/01/24 08:07:53;;;;;;;36.88;22.20;;;;;;;13.78;44.62;102994.56;4993608;28;20392;-73
2022/01/24 08:10:18;;;;;;;35.35;20.20;;;;;;;13.68;44.71;102991.81;4993843;28;20026;-83
2022/01/24 08:12:44;;;;;;;39.95;23.25;;;;;;;13.64;44.79;102997.06;4975660;28;20037;-84
2022/01/24 08:15:14;;;;;;;44.72;21.48;;;;;;;13.62;45.02;102992.97;4993374;28;20353;-73
2022/01/24 08:17:44;;;;;;;38.45;20.33;;;;;;;13.62;45.15;102998.47;4993642;28;20022;-73
2022/01/24 08:20:10;;;;;;;;;;;;;;;13.55;45.41;103002.31;4994236;28;20041;-76
2022/01/24 08:22:36;;;;;;;40.83;20.92;;;;;;;13.65;44.93;103004.22;4993880;28;19944;-73
2022/01/24 08:25:04;;;;;;;41.20;22.60;;;;;;;13.59;44.95;103008.88;4993224;28;20244;-74
2022/01/24 08:27:31;;;;;;;39.25;21.45;;;;;;;13.68;44.75;103003.66;4993629;28;20022;-78
2022/01/24 08:29:57;;;;;;;48.08;22.02;;;;;;;13.63;45.00;103005.59;4993358;28;20061;-83
2022/01/24 08:32:23;;;;;;;41.50;21.13;;;;;;;13.59;44.83;103010.81;4993172;28;20085;-73
2022/01/24 08:34:48;;;;;;;43.05;21.00;;;;;;;13.62;45.07;103012.19;4992461;28;20492;-80
2022/01/24 08:37:14;;;;;;;43.33;23.27;;;;;;;13.50;45.46;103017.97;4992092;28;20042;-85
2022/01/24 08:39:39;;;;;;;46.38;23.23;;;;;;;13.57;45.03;103022.09;4992055;28;20105;-76
2022/01/24 08:42:15;;;;;;;38.20;21.40;;;;;;;13.70;44.85;103039.09;4992256;28;20054;-73
2022/01/24 08:47:23;;;;;;;34.30;20.25;;;;;;;13.66;44.98;103043.50;4993241;28;20469;-74
2022/01/24 08:49:50;;;;;;;40.55;21.17;;;;;;;13.63;45.11;103041.31;4975551;28;20373;-75
2022/01/24 08:52:15;;;;;;;45.50;22.48;;;;;;;13.68;45.05;103042.13;4994453;28;20061;-83
2022/01/24 08:54:41;;;;;;;37.42;20.15;;;;;;;13.66;45.40;103040.75;4997185;28;20088;-71
2022/01/24 08:57:07;;;;;;;33.63;20.48;;;;;;;13.61;45.38;103036.09;4996767;28;20126;-74
2022/01/24 08:59:33;;;;;;;39.95;22.50;;;;;;;13.68;44.78;103042.13;4997110;28;20424;-74
2022/01/24 09:02:00;;;;;;;41.40;20.73;;;;;;;13.67;45.19;103045.94;4997054;28;20034;-81
2022/01/24 09:04:25;;;;;;;44.33;22.83;;;;;;;13.71;45.13;103043.50;4993370;28;20026;-77
2022/01/24 09:06:52;;;;;;;41.33;23.83;;;;;;;13.72;44.94;103048.69;4977182;28;20026;-74
2022/01/24 09:09:19;;;;;;;56.05;40.88;;;;;;;13.67;45.17;103053.38;4978980;28;20484;-79
2022/01/24 09:11:45;;;;;;;45.60;26.23;;;;;;;13.72;45.02;103054.19;4996155;28;20515;-74
2022/01/24 09:14:11;;;;;;;43.40;23.23;;;;;;;13.78;45.08;103050.34;4985008;28;20448;-73
2022/01/24 09:16:38;;;;;;;40.20;22.92;;;;;;;13.85;44.93;103056.38;4999794;28;20073;-72
2022/01/24 09:19:04;;;;;;;40.60;21.65;;;;;;;13.81;44.91;103047.03;4996196;28;20030;-72
2022/01/24 09:21:34;;;;;;;34.45;19.67;;;;;;;13.83;45.04;103057.75;4996136;28;20385;-78
2022/01/24 09:24:00;;;;;;;34.97;19.80;;;;;;;13.95;44.80;103062.94;4995554;28;20424;-77
2022/01/24 09:26:26;;;;;;;39.53;20.98;;;;;;;13.94;44.94;103064.03;4978943;28;20050;-75
2022/01/24 09:28:52;;;;;;;38.47;21.63;;;;;;;13.89;45.01;103065.69;4978608;28;20381;-74
2022/01/24 09:31:18;;;;;;;33.85;19.85;;;;;;;13.88;44.97;103064.03;4978341;28;20053;-74
2022/01/24 09:33:44;;;;;;;46.50;36.40;;;;;;;13.99;44.85;103072.28;4995794;28;20073;-75
2022/01/24 09:36:09;;;;;;;35.15;20.70;;;;;;;14.02;44.91;103071.72;4996039;28;20023;-78
2022/01/24 09:38:36;;;;;;;49.10;24.73;;;;;;;14.04;44.79;103080.50;4995564;28;20029;-73
2022/01/24 09:41:06;;;;;;;38.00;20.27;;;;;;;13.96;45.15;103087.38;4995496;28;20093;-74
2022/01/24 09:43:32;;;;;;;38.92;22.15;;;;;;;14.13;44.56;103084.31;4995698;28;20133;-74
2022/01/24 09:45:58;;;;;;;34.97;21.35;;;;;;;14.18;44.86;103086.22;4997023;28;20034;-74
2022/01/24 09:48:25;;;;;;;34.35;19.70;;;;;;;14.20;45.13;103092.25;4996761;28;20054;-73
2022/01/24 09:50:53;;;;;;;36.80;19.52;;;;;;;14.30;44.90;103086.75;4996181;28;20034;-74
2022/01/24 09:53:20;;;;;;;36.03;22.05;;;;;;;14.38;44.89;103091.66;4995553;28;20030;-74
2022/01/24 09:55:47;;;;;;;34.72;19.52;;;;;;;14.42;45.06;103089.97;4995722;28;20145;-74
2022/01/24 09:58:12;;;;;;;35.28;20.27;;;;;;;14.49;45.02;103104.28;4995474;28;20057;-74
2022/01/24 10:00:39;;;;;;;32.65;18.80;;;;;;;14.57;44.97;103091.84;4995748;28;20061;-74
2022/01/24 10:03:07;;;;;;;28.88;18.50;;;;;;;14.64;44.85;103089.63;4995178;28;20030;-74
2022/01/24 10:05:37;;;;;;;34.75;17.65;;;;;;;14.71;44.99;103084.63;4995310;28;20058;-74
2022/01/24 10:08:05;;;;;;;41.45;21.10;;;;;;;14.84;44.76;103086.75;4995018;28;20502;-74
2022/01/24 10:10:48;;;;;;;28.85;19.60;;;;;;;14.78;45.12;103090.66;4994925;28;20031;-78
2022/01/24 10:16:25;;;;;;;35.42;17.98;;;;;;;14.89;45.13;103100.50;4995339;28;20097;-74
2022/01/24 10:19:19;;;;;;;35.72;18.65;;;;;;;14.96;45.24;103101.00;4995177;28;20121;-73
2022/01/24 10:21:48;;;;;;;32.38;17.75;;;;;;;15.17;44.88;103100.84;4995036;28;20034;-73
2022/01/24 10:24:33;;;;;;;28.52;17.23;;;;;;;15.25;44.86;103097.47;4994934;28;20030;-73
2022/01/24 10:27:09;;;;;;;33.15;17.42;;;;;;;15.36;44.62;103090.78;4994919;28;20481;-74
2022/01/24 10:30:02;;;;;;;32.80;17.88;;;;;;;15.46;44.84;103098.13;4994809;28;20022;-74
2022/01/24 10:32:46;;;;;;;34.13;19.88;;;;;;;15.41;44.73;103090.72;4994685;28;20046;-74
2022/01/24 10:35:40;;;;;;;38.97;24.38;;;;;;;15.52;44.79;103086.78;4994838;28;20026;-74
2022/01/24 10:41:19;;;;;;;38.03;20.30;;;;;;;15.71;44.68;103092.41;4994829;28;20026;-74
2022/01/24 10:43:46;;;;;;;41.00;28.77;;;;;;;15.81;44.77;103092.31;4994769;28;20058;-84
2022/01/24 10:46:13;;;;;;;33.30;19.20;;;;;;;15.87;44.53;103087.59;4977218;28;20045;-76
2022/01/24 10:48:43;;;;;;;40.22;20.30;;;;;;;16.06;44.29;103087.63;4994743;28;20446;-81
2022/01/24 10:51:20;;;;;;;27.27;14.43;;;;;;;16.06;44.26;103090.41;4994479;28;20080;-76
2022/01/24 10:53:51;;;;;;;33.22;16.00;;;;;;;16.16;44.28;103100.47;4994495;28;20491;-75
2022/01/24 10:56:31;;;;;;;26.80;15.20;;;;;;;16.16;44.23;103092.19;4994356;28;20045;-75
2022/01/24 10:59:22;;;;;;;40.92;20.45;;;;;;;16.20;44.26;103091.34;4994296;28;20033;-76
2022/01/24 11:01:56;;;;;;;30.48;16.65;;;;;;;16.28;44.06;103096.19;4994264;28;20477;-76
2022/01/24 11:04:26;;;;;;;30.23;15.23;;;;;;;16.27;44.15;103096.50;4992404;28;20137;-81
2022/01/24 11:06:55;;;;;;;;;;;;;;;16.23;44.32;103084.41;4975500;28;20050;-81
2022/01/24 11:09:40;;;;;;;27.45;16.73;;;;;;;16.43;43.87;103086.09;4976007;28;20420;-80
2022/01/24 11:12:12;;;;;;;42.75;15.80;;;;;;;16.47;43.95;103089.88;4989451;28;20489;-78
2022/01/24 11:14:41;;;;;;;33.88;16.67;;;;;;;16.53;44.01;103089.53;4992538;28;20662;-77
2022/01/24 11:17:10;;;;;;;29.40;15.40;;;;;;;16.67;43.93;103086.84;4993081;28;20050;-76
2022/01/24 11:22:05;;;;;;;31.77;14.57;;;;;;;16.89;43.44;103094.56;4992660;28;20084;-75
2022/01/24 11:24:41;;;;;;;25.77;14.43;;;;;;;16.82;44.01;103091.38;4992984;28;20030;-77
2022/01/24 11:27:08;;;;;;;25.80;13.70;;;;;;;16.92;44.13;103093.97;4992820;28;20030;-77
2022/01/24 11:29:36;;;;;;;33.08;15.95;;;;;;;17.09;43.93;103097.03;4992885;28;20266;-75
2022/01/24 11:32:08;;;;;;;25.77;13.90;;;;;;;17.35;43.34;103088.31;4992795;28;20181;-83
2022/01/24 11:34:39;;;;;;;24.55;14.18;;;;;;;17.44;42.69;103087.31;4993017;28;20033;-84
2022/01/24 11:37:06;;;;;;;22.80;13.68;;;;;;;17.47;43.09;103088.69;4991349;28;20489;-76
2022/01/24 11:39:33;;;;;;;25.15;13.07;;;;;;;17.71;42.49;103085.78;4992612;28;20033;-77
2022/01/24 11:41:59;;;;;;;29.42;14.43;;;;;;;17.66;42.33;103089.44;4992774;28;20043;-77
2022/01/24 11:44:46;;;;;;;21.98;13.30;;;;;;;17.63;42.10;103087.28;4992594;28;20542;-76
2022/01/24 11:47:23;;;;;;;23.15;14.55;;;;;;;17.59;42.16;103083.47;4975562;28;20049;-74
2022/01/24 11:49:54;;;;;;;34.22;14.10;;;;;;;17.66;41.95;103083.06;4992457;28;20046;-74
2022/01/24 11:52:29;;;;;;;29.95;14.45;;;;;;;17.67;42.09;103085.53;4992095;28;20467;-74
2022/01/24 11:55:13;;;;;;;33.30;13.48;;;;;;;17.71;41.91;103086.59;4992746;28;20018;-75
2022/01/24 11:57:49;;;;;;;26.63;12.68;;;;;;;17.63;41.49;103090.03;4992162;28;20035;-76
2022/01/24 12:00:17;;;;;;;28.05;13.55;;;;;;;17.76;41.70;103071.88;4992786;28;20072;-77
2022/01/24 12:02:52;;;;;;;22.65;13.27;;;;;;;17.76;41.54;103071.88;4974634;28;20030;-76
2022/01/24 12:05:24;;;;;;;29.13;13.32;;;;;;;17.57;41.26;103074.66;4992358;28;20055;-84
2022/01/24 12:07:52;;;;;;;20.67;10.90;;;;;;;17.73;41.21;103073.28;4974779;28;20038;-72
2022/01/24 12:10:33;;;;;;;25.60;13.02;;;;;;;17.75;40.93;103059.16;4992747;28;20061;-74
2022/01/24 12:13:18;;;;;;;26.70;13.88;;;;;;;17.72;40.68;103055.06;4992330;28;20369;-71
2022/01/24 12:15:43;;;;;;;28.63;14.48;;;;;;;17.91;40.80;103059.66;4992298;28;20484;-72
2022/01/24 12:18:28;;;;;;;24.42;13.93;;;;;;;17.80;40.54;103055.47;4992346;28;20101;-73
2022/01/24 12:21:08;;;;;;;22.15;11.90;;;;;;;17.77;40.49;103058.88;4991970;28;20109;-74
2022/01/24 12:23:39;;;;;;;31.27;13.55;;;;;;;17.93;40.34;103057.44;4991810;28;20041;-72
2022/01/24 12:26:09;;;;;;;24.42;12.45;;;;;;;17.95;40.23;103049.66;4992403;28;20046;-75
2022/01/24 12:28:43;;;;;;;25.20;12.65;;;;;;;18.01;40.01;103062.25;4995692;28;20504;-73
2022/01/24 12:31:26;;;;;;;22.88;12.48;;;;;;;18.10;39.93;103054.06;4996490;28;20443;-75
2022/01/24 12:33:54;;;;;;;25.63;12.77;;;;;;;18.11;39.79;103045.44;4996278;28;20519;-76
2022/01/24 12:36:48;;;;;;;28.35;13.10;;;;;;;18.08;39.67;103051.59;4995946;28;20420;-73
2022/01/24 12:39:20;;;;;;;24.58;13.60;;;;;;;18.20;39.33;103046.34;4995158;28;20026;-76
2022/01/24 12:41:54;;;;;;;33.97;13.70;;;;;;;18.21;39.58;103036.09;4994352;28;20205;-76
2022/01/24 12:47:04;;;;;;;20.75;12.18;;;;;;;18.25;39.34;103057.31;4976525;28;20085;-73
2022/01/24 12:49:31;;;;;;;29.10;13.85;;;;;;;18.39;39.11;103056.50;4980128;28;20022;-78
2022/01/24 12:52:02;;;;;;;28.75;14.77;;;;;;;18.53;39.01;103048.97;4977831;28;20481;-82
2022/01/24 12:54:32;;;;;;;26.40;14.52;;;;;;;18.37;39.21;103051.28;4995822;28;20018;-76
2022/01/24 12:57:09;;;;;;;32.72;14.55;;;;;;;18.54;38.59;103054.19;4995778;28;20030;-81
2022/01/24 12:59:36;;;;;;;24.10;15.02;;;;;;;18.65;38.75;103063.06;4995663;28;20019;-76